Aviation Digital Data Service (ADDS)

Output produced by TAFs form (1900 UTC 19 September 2017)
found at http://www.aviationweather.gov/adds/tafs/
 
METAR text: UUEE 191830Z 22005MPS CAVOK 11/07 Q1017 R24R/CLRD62 R24L/CLRD62 NOSIG
Conditions at: UUEE (MOSCOW/SHEREMET', RU) observed 1830 UTC 19 September 2017
Temperature: 11.0°C (52°F)
Dewpoint: 7.0°C (45°F) [RH = 76%]
Pressure (altimeter): 30.03 inches Hg (1017.0 mb)
Winds: from the SW (220 degrees) at 12 MPH (10 knots; 5.2 m/s)
Visibility: 6 or more miles (10+ km)
Ceiling: ceiling and visibility are OK
Clouds: unknown
Weather: no significant weather observed at this time

Forecast for: UUEE (MOSCOW/SHEREMET', RU)
Text: TAF UUEE 191657Z 1918/2018 25007MPS 9999 SCT030 TX17/2012Z TN07/2003Z
Forecast period: 1800 UTC 19 September 2017 to 1500 UTC 20 September 2017
Forecast type: FROM: standard forecast or significant change
Winds: from the WSW (250 degrees) at 16 MPH (14 knots; 7.3 m/s)
Visibility: 6 or more miles (10+ km)
Clouds: scattered clouds at 3000 feet AGL
Weather: no significant weather forecast for this period
Text: BECMG 2015/2017 02006MPS
Forecast period: 1500 to 1800 UTC 20 September 2017
Forecast type: BECOMING: Conditions expected to become as follows by 1700 UTC 20 September 2017
Winds: from the NNE (20 degrees) at 14 MPH (12 knots; 6.2 m/s)
Visibility: 6 or more miles (10+ km)
Clouds: scattered clouds at 3000 feet AGL
Weather: no significant weather forecast for this period